Time;durP1;ratioP1;P1;durP2;ratioP2;P2;SDS_P1;SDS_P2;PMS_P1;PMS_P2;Temp;Humidity;BMP_temperature;BMP_pressure;BME280_temperature;BME280_humidity;BME280_pressure;Samples;Min_cycle;Max_cycle;Signal;HPM_P1;HPM_P2
2023/12/16 00:02:24;;;;;;;39.38;22.80;;;;;;;;;;5107801;28;20012;-43
2023/12/16 00:04:51;;;;;;;29.50;17.27;;;;;;;;;;5107471;28;20087;-43
2023/12/16 00:07:17;;;;;;;30.70;15.52;;;;;;;;;;5106371;28;20028;-45
2023/12/16 00:09:44;;;;;;;31.10;14.70;;;;;;;;;;5107466;28;20035;-47
2023/12/16 00:12:10;;;;;;;20.35;11.93;;;;;;;;;;5107311;28;20130;-44
2023/12/16 00:14:37;;;;;;;19.73;11.70;;;;;;;;;;5107467;28;20172;-42
2023/12/16 00:17:05;;;;;;;23.55;10.43;;;;;;;;;;5107553;28;20031;-41
2023/12/16 00:19:32;;;;;;;19.30;9.93;;;;;;;;;;5107082;28;20338;-40
2023/12/16 00:21:58;;;;;;;19.65;9.98;;;;;;;;;;5107583;28;20032;-44
2023/12/16 00:24:26;;;;;;;18.05;9.13;;;;;;;;;;5107150;28;20181;-40
2023/12/16 00:26:53;;;;;;;16.95;8.75;;;;;;;;;;5107489;28;20032;-40
2023/12/16 00:29:20;;;;;;;23.00;8.75;;;;;;;;;;5106897;28;20043;-39
2023/12/16 00:31:47;;;;;;;18.35;8.60;;;;;;;;;;5107683;28;20032;-44
2023/12/16 00:34:14;;;;;;;12.98;8.52;;;;;;;;;;5106762;28;20024;-45
2023/12/16 00:36:44;;;;;;;17.73;8.32;;;;;;;;;;5107315;28;20308;-46
2023/12/16 00:39:10;;;;;;;16.38;8.00;;;;;;;;;;5106977;28;20041;-43
2023/12/16 00:41:37;;;;;;;13.57;7.55;;;;;;;;;;5106741;28;20354;-40
2023/12/16 00:44:04;;;;;;;11.55;6.97;;;;;;;;;;5106758;28;20028;-47
2023/12/16 00:46:32;;;;;;;16.63;7.40;;;;;;;;;;5106868;28;20219;-39
2023/12/16 00:48:59;;;;;;;12.07;8.82;;;;;;;;;;5106480;28;20059;-44
2023/12/16 00:51:26;;;;;;;18.05;9.07;;;;;;;;;;5106614;28;20020;-49
2023/12/16 00:53:52;;;;;;;14.43;8.02;;;;;;;;;;5106511;28;20024;-41
2023/12/16 00:56:19;;;;;;;12.68;7.45;;;;;;;;;;5106561;28;20062;-43
2023/12/16 00:58:49;;;;;;;7.85;7.05;;;;;;;;;;5106583;28;20027;-45
2023/12/16 01:01:16;;;;;;;14.52;7.28;;;;;;;;;;5106708;28;20028;-47
2023/12/16 01:03:42;;;;;;;11.68;6.97;;;;;;;;;;5105680;28;20019;-46
2023/12/16 01:06:09;;;;;;;12.80;6.95;;;;;;;;;;5106416;28;20043;-40
2023/12/16 01:08:36;;;;;;;10.70;7.30;;;;;;;;;;5106134;28;20020;-39
2023/12/16 01:11:02;;;;;;;11.30;7.50;;;;;;;;;;5106578;28;20073;-39
2023/12/16 01:13:29;;;;;;;12.77;7.25;;;;;;;;;;5106491;28;20016;-46
2023/12/16 01:15:56;;;;;;;11.57;7.35;;;;;;;;;;5106551;28;20031;-39
2023/12/16 01:18:24;;;;;;;13.70;7.90;;;;;;;;;;5106010;28;20024;-40
2023/12/16 01:20:52;;;;;;;13.55;7.80;;;;;;;;;;5106534;28;20047;-46
2023/12/16 01:23:19;;;;;;;12.23;7.30;;;;;;;;;;5105778;28;20254;-51
2023/12/16 01:25:45;;;;;;;9.63;7.22;;;;;;;;;;5105798;28;20327;-44
2023/12/16 01:28:15;;;;;;;13.45;7.80;;;;;;;;;;5105583;28;20051;-39
2023/12/16 01:30:42;;;;;;;10.35;7.45;;;;;;;;;;5105833;28;20043;-46
2023/12/16 01:33:12;;;;;;;16.67;7.95;;;;;;;;;;5105351;28;20332;-40
2023/12/16 01:35:40;;;;;;;16.58;8.15;;;;;;;;;;5105699;28;20340;-45
2023/12/16 01:38:07;;;;;;;19.13;8.75;;;;;;;;;;5105391;28;20036;-51
2023/12/16 01:40:34;;;;;;;12.80;8.65;;;;;;;;;;5105926;28;20087;-42
2023/12/16 01:43:10;;;;;;;16.88;8.70;;;;;;;;;;5105465;28;20066;-40
2023/12/16 01:45:37;;;;;;;22.23;7.97;;;;;;;;;;5105290;28;20160;-42
2023/12/16 01:48:04;;;;;;;15.18;8.02;;;;;;;;;;5105244;28;20024;-45
2023/12/16 01:50:32;;;;;;;20.48;8.73;;;;;;;;;;5105619;28;20170;-44
2023/12/16 01:52:58;;;;;;;12.82;8.65;;;;;;;;;;5105302;28;20039;-46
2023/12/16 01:55:25;;;;;;;15.77;8.52;;;;;;;;;;5105216;28;20146;-43
2023/12/16 01:57:52;;;;;;;15.30;8.43;;;;;;;;;;5105251;28;20056;-45
2023/12/16 02:00:22;;;;;;;17.10;8.48;;;;;;;;;;5105225;28;20350;-42
2023/12/16 02:02:49;;;;;;;15.27;8.10;;;;;;;;;;5105221;28;20051;-48
2023/12/16 02:05:16;;;;;;;12.60;7.97;;;;;;;;;;5105216;28;20039;-43
2023/12/16 02:07:44;;;;;;;15.32;8.10;;;;;;;;;;5104765;28;20038;-47
2023/12/16 02:10:11;;;;;;;13.35;7.75;;;;;;;;;;5104952;28;20019;-46
2023/12/16 02:12:39;;;;;;;14.98;7.97;;;;;;;;;;5105191;28;20098;-43
2023/12/16 02:15:06;;;;;;;13.52;7.82;;;;;;;;;;5104823;28;20039;-51
2023/12/16 02:17:32;;;;;;;20.90;8.10;;;;;;;;;;5104888;28;20040;-45
2023/12/16 02:19:59;;;;;;;18.17;8.40;;;;;;;;;;5105018;28;20076;-39
2023/12/16 02:22:25;;;;;;;17.23;8.63;;;;;;;;;;5105140;28;20027;-39
2023/12/16 02:24:53;;;;;;;13.77;8.70;;;;;;;;;;5104542;28;20035;-42
2023/12/16 02:27:19;;;;;;;15.10;8.98;;;;;;;;;;5104685;28;20087;-42
2023/12/16 02:29:46;;;;;;;21.52;8.85;;;;;;;;;;5103698;28;20067;-43
2023/12/16 02:32:13;;;;;;;18.77;9.48;;;;;;;;;;5104957;28;20024;-47
2023/12/16 02:34:40;;;;;;;20.38;9.38;;;;;;;;;;5104872;28;20012;-46
2023/12/16 02:37:06;;;;;;;17.45;9.68;;;;;;;;;;5104857;28;20050;-45
2023/12/16 02:39:34;;;;;;;20.42;9.90;;;;;;;;;;5104287;28;20031;-52
2023/12/16 02:42:00;;;;;;;19.98;13.10;;;;;;;;;;5105095;28;20024;-47
2023/12/16 02:44:27;;;;;;;23.67;14.52;;;;;;;;;;5104290;28;20035;-42
2023/12/16 02:46:54;;;;;;;18.13;13.55;;;;;;;;;;5105064;28;20024;-44
2023/12/16 02:49:20;;;;;;;21.80;13.35;;;;;;;;;;5104771;28;20016;-41
2023/12/16 02:51:47;;;;;;;24.48;13.20;;;;;;;;;;5105076;28;20016;-48
2023/12/16 02:54:14;;;;;;;21.85;12.35;;;;;;;;;;5104789;28;20083;-44
2023/12/16 02:56:40;;;;;;;22.88;11.13;;;;;;;;;;5105204;28;20019;-43
2023/12/16 02:59:07;;;;;;;14.65;9.43;;;;;;;;;;5104995;28;20056;-40
2023/12/16 03:01:34;;;;;;;13.38;8.77;;;;;;;;;;5103292;28;20216;-47
2023/12/16 03:04:00;;;;;;;13.57;8.45;;;;;;;;;;5105009;28;20016;-50
2023/12/16 03:06:27;;;;;;;13.32;8.00;;;;;;;;;;5105210;28;20093;-45
2023/12/16 03:08:54;;;;;;;8.40;7.60;;;;;;;;;;5104460;28;20030;-40
2023/12/16 03:11:20;;;;;;;13.57;9.00;;;;;;;;;;5105019;28;20027;-39
2023/12/16 03:13:47;;;;;;;13.38;8.80;;;;;;;;;;5104697;28;20069;-39
2023/12/16 03:16:14;;;;;;;11.05;8.30;;;;;;;;;;5104941;28;20020;-50
2023/12/16 03:18:42;;;;;;;10.30;7.22;;;;;;;;;;5104758;28;20031;-49
2023/12/16 03:21:08;;;;;;;11.70;7.55;;;;;;;;;;5104501;28;20116;-43
2023/12/16 03:23:35;;;;;;;14.43;7.00;;;;;;;;;;5104503;28;20036;-45
2023/12/16 03:26:03;;;;;;;10.70;7.18;;;;;;;;;;5104837;28;20164;-47
2023/12/16 03:28:30;;;;;;;9.20;6.47;;;;;;;;;;5104238;28;20040;-41
2023/12/16 03:30:56;;;;;;;9.98;6.13;;;;;;;;;;5104407;28;20020;-47
2023/12/16 03:33:23;;;;;;;8.45;6.22;;;;;;;;;;5104522;28;20161;-45
2023/12/16 03:35:50;;;;;;;6.85;6.13;;;;;;;;;;5104539;28;20020;-41
2023/12/16 03:38:16;;;;;;;11.20;6.55;;;;;;;;;;5104376;28;20051;-41
2023/12/16 03:40:43;;;;;;;7.57;6.38;;;;;;;;;;5106104;28;20039;-43
2023/12/16 03:43:10;;;;;;;8.93;7.03;;;;;;;;;;5107829;28;20040;-47
2023/12/16 03:45:36;;;;;;;9.93;6.65;;;;;;;;;;5108063;28;20267;-42
2023/12/16 03:48:03;;;;;;;8.73;7.05;;;;;;;;;;5107936;28;20027;-45
2023/12/16 03:50:30;;;;;;;8.77;6.68;;;;;;;;;;5107847;28;20301;-43
2023/12/16 03:52:57;;;;;;;7.32;5.95;;;;;;;;;;5107858;28;20036;-43
2023/12/16 03:55:23;;;;;;;8.25;5.88;;;;;;;;;;5108078;28;20122;-43
2023/12/16 03:57:50;;;;;;;6.53;5.90;;;;;;;;;;5107592;28;20028;-42
2023/12/16 04:00:17;;;;;;;10.13;5.47;;;;;;;;;;5107654;28;20026;-49
2023/12/16 04:02:43;;;;;;;7.82;5.80;;;;;;;;;;5107798;28;20087;-53
2023/12/16 04:05:10;;;;;;;9.32;6.03;;;;;;;;;;5107729;28;20260;-49
2023/12/16 04:07:37;;;;;;;7.38;5.60;;;;;;;;;;5107554;28;20030;-43
2023/12/16 04:10:04;;;;;;;6.28;5.50;;;;;;;;;;5107140;28;20071;-39
2023/12/16 04:12:31;;;;;;;7.57;5.70;;;;;;;;;;5107699;28;20052;-42
2023/12/16 04:14:58;;;;;;;10.20;5.88;;;;;;;;;;5107641;28;20039;-48
2023/12/16 04:17:25;;;;;;;6.13;5.53;;;;;;;;;;5107466;28;20065;-48
2023/12/16 04:19:54;;;;;;;9.07;5.88;;;;;;;;;;5107499;28;20073;-47
2023/12/16 04:22:21;;;;;;;10.82;5.65;;;;;;;;;;5107214;28;20043;-46
2023/12/16 04:24:50;;;;;;;8.23;5.63;;;;;;;;;;5107210;28;20016;-42
2023/12/16 04:27:17;;;;;;;11.75;5.75;;;;;;;;;;5107279;28;20108;-48
2023/12/16 04:29:43;;;;;;;10.00;5.32;;;;;;;;;;5107008;28;20047;-40
2023/12/16 04:32:10;;;;;;;7.55;5.38;;;;;;;;;;5107141;28;20020;-50
2023/12/16 04:34:36;;;;;;;6.20;5.60;;;;;;;;;;5107018;28;20066;-38
2023/12/16 04:37:03;;;;;;;6.75;5.25;;;;;;;;;;5107546;28;20083;-38
2023/12/16 04:39:30;;;;;;;8.65;5.40;;;;;;;;;;5106946;28;20047;-39
2023/12/16 04:41:56;;;;;;;11.13;6.07;;;;;;;;;;5104154;28;20048;-52
2023/12/16 04:44:23;;;;;;;12.38;5.90;;;;;;;;;;5097861;28;20400;-59
2023/12/16 04:46:50;;;;;;;10.65;5.82;;;;;;;;;;5091515;28;20031;-50
2023/12/16 04:49:16;;;;;;;9.23;5.90;;;;;;;;;;5105641;28;20133;-59
2023/12/16 04:51:43;;;;;;;5.93;5.20;;;;;;;;;;5104899;28;20256;-56
2023/12/16 04:54:10;;;;;;;6.32;5.72;;;;;;;;;;5105129;28;20024;-54
2023/12/16 04:56:36;;;;;;;5.72;4.82;;;;;;;;;;5106277;28;20304;-54
2023/12/16 04:59:03;;;;;;;7.90;4.90;;;;;;;;;;5105831;28;20201;-52
2023/12/16 05:01:29;;;;;;;5.45;4.95;;;;;;;;;;5100423;28;20044;-57
2023/12/16 05:03:56;;;;;;;5.20;4.70;;;;;;;;;;5094423;28;20244;-57
2023/12/16 05:06:23;;;;;;;4.97;4.50;;;;;;;;;;5085635;28;20058;-54
2023/12/16 05:08:49;;;;;;;5.15;4.63;;;;;;;;;;5085112;28;20024;-59
2023/12/16 05:11:17;;;;;;;5.65;4.70;;;;;;;;;;5085495;28;20028;-55
2023/12/16 05:13:44;;;;;;;5.25;4.38;;;;;;;;;;5120157;28;20068;-55
2023/12/16 05:16:10;;;;;;;5.90;4.22;;;;;;;;;;5126045;28;20016;-56
2023/12/16 05:18:37;;;;;;;5.25;4.70;;;;;;;;;;5125994;28;20081;-55
2023/12/16 05:21:04;;;;;;;6.75;4.63;;;;;;;;;;5126006;28;20091;-58
2023/12/16 05:23:30;;;;;;;6.47;4.40;;;;;;;;;;5125438;28;20223;-57
2023/12/16 05:25:57;;;;;;;4.63;4.22;;;;;;;;;;5125910;28;20359;-53
2023/12/16 05:28:24;;;;;;;5.13;4.63;;;;;;;;;;5125524;28;20085;-60
2023/12/16 05:30:51;;;;;;;7.63;4.32;;;;;;;;;;5125665;28;20335;-55
2023/12/16 05:33:18;;;;;;;5.18;4.63;;;;;;;;;;5125457;28;20389;-53
2023/12/16 05:35:45;;;;;;;5.22;4.57;;;;;;;;;;5125514;28;20254;-56
2023/12/16 05:38:11;;;;;;;7.55;4.70;;;;;;;;;;5125689;28;20083;-58
2023/12/16 05:40:38;;;;;;;6.82;4.80;;;;;;;;;;5125770;28;20023;-56
2023/12/16 05:43:05;;;;;;;5.50;4.45;;;;;;;;;;5125490;28;20273;-54
2023/12/16 05:45:31;;;;;;;6.40;4.60;;;;;;;;;;5125300;28;20246;-55
2023/12/16 05:47:58;;;;;;;6.60;4.38;;;;;;;;;;5124903;28;20208;-57
2023/12/16 05:50:25;;;;;;;8.15;4.53;;;;;;;;;;5125401;28;20300;-56
2023/12/16 05:52:51;;;;;;;6.53;5.07;;;;;;;;;;5125170;28;20062;-60
2023/12/16 05:55:18;;;;;;;6.50;3.88;;;;;;;;;;5125035;28;20027;-54
2023/12/16 05:57:44;;;;;;;6.55;4.40;;;;;;;;;;5125033;28;20027;-55
2023/12/16 06:00:11;;;;;;;6.32;4.25;;;;;;;;;;5125144;28;20016;-54
2023/12/16 06:02:38;;;;;;;6.05;4.65;;;;;;;;;;5124873;28;20088;-56
2023/12/16 06:05:05;;;;;;;4.63;4.05;;;;;;;;;;5124320;28;20035;-55
2023/12/16 06:07:32;;;;;;;4.88;4.03;;;;;;;;;;5124992;28;20023;-55
2023/12/16 06:09:58;;;;;;;4.95;4.30;;;;;;;;;;5124555;28;20027;-58
2023/12/16 06:12:25;;;;;;;5.80;4.45;;;;;;;;;;5124820;28;20019;-51
2023/12/16 06:14:51;;;;;;;5.53;4.30;;;;;;;;;;5124628;28;20024;-53
2023/12/16 06:17:18;;;;;;;4.68;4.20;;;;;;;;;;5124721;28;20041;-56
2023/12/16 06:19:45;;;;;;;6.45;3.83;;;;;;;;;;5124578;28;20307;-59
2023/12/16 06:22:11;;;;;;;5.43;4.53;;;;;;;;;;5124732;28;20149;-55
2023/12/16 06:24:38;;;;;;;5.40;4.30;;;;;;;;;;5124506;28;20031;-58
2023/12/16 06:27:05;;;;;;;4.95;3.97;;;;;;;;;;5124909;28;20046;-57
2023/12/16 06:29:32;;;;;;;4.10;3.70;;;;;;;;;;5124565;28;20127;-56
2023/12/16 06:31:59;;;;;;;5.90;4.13;;;;;;;;;;5124835;28;20082;-54
2023/12/16 06:34:25;;;;;;;4.50;4.00;;;;;;;;;;5124762;28;20094;-58
2023/12/16 06:36:52;;;;;;;6.18;3.90;;;;;;;;;;5125033;28;20011;-54
2023/12/16 06:39:18;;;;;;;4.50;4.00;;;;;;;;;;5124418;28;20039;-52
2023/12/16 06:41:45;;;;;;;6.85;4.22;;;;;;;;;;5124937;28;20031;-55
2023/12/16 06:44:12;;;;;;;4.65;4.10;;;;;;;;;;5124591;28;20027;-56
2023/12/16 06:46:38;;;;;;;5.03;4.22;;;;;;;;;;5110395;28;20095;-57
2023/12/16 06:49:05;;;;;;;7.63;4.30;;;;;;;;;;5102494;28;20031;-47
2023/12/16 06:51:32;;;;;;;6.13;4.57;;;;;;;;;;5104460;28;20065;-54
2023/12/16 06:53:58;;;;;;;6.20;4.00;;;;;;;;;;5103412;28;20043;-53
2023/12/16 06:56:25;;;;;;;4.60;3.95;;;;;;;;;;5102175;28;20379;-56
2023/12/16 06:58:52;;;;;;;5.70;4.05;;;;;;;;;;5102662;28;20215;-53
2023/12/16 07:01:18;;;;;;;5.22;4.40;;;;;;;;;;5103307;28;20047;-59
2023/12/16 07:03:45;;;;;;;4.68;4.22;;;;;;;;;;5103660;28;20024;-52
2023/12/16 07:06:12;;;;;;;7.93;4.50;;;;;;;;;;5102424;28;20031;-55
2023/12/16 07:08:40;;;;;;;5.82;4.43;;;;;;;;;;5101917;28;20035;-60
2023/12/16 07:11:07;;;;;;;5.45;4.63;;;;;;;;;;5102177;28;20023;-55
2023/12/16 07:13:33;;;;;;;5.82;4.15;;;;;;;;;;5101959;28;20024;-58
2023/12/16 07:16:04;;;;;;;6.88;4.60;;;;;;;;;;5104361;28;20213;-54
2023/12/16 07:18:31;;;;;;;7.65;4.80;;;;;;;;;;5105879;28;20036;-54
2023/12/16 07:20:57;;;;;;;4.85;4.45;;;;;;;;;;5107702;28;20019;-55
2023/12/16 07:23:24;;;;;;;7.05;4.50;;;;;;;;;;5107621;28;20317;-56
2023/12/16 07:25:51;;;;;;;6.70;4.30;;;;;;;;;;5107544;28;20098;-53
2023/12/16 07:28:18;;;;;;;5.90;4.20;;;;;;;;;;5107414;28;20067;-53
2023/12/16 07:30:45;;;;;;;5.03;4.53;;;;;;;;;;5107615;28;20031;-56
2023/12/16 07:33:12;;;;;;;4.65;4.25;;;;;;;;;;5107352;28;20054;-52
2023/12/16 07:35:39;;;;;;;6.68;4.25;;;;;;;;;;5107575;28;20016;-50
2023/12/16 07:38:08;;;;;;;5.20;4.45;;;;;;;;;;5107256;28;20269;-53
2023/12/16 07:40:37;;;;;;;8.00;4.40;;;;;;;;;;5107279;28;20077;-50
2023/12/16 07:43:04;;;;;;;5.38;4.25;;;;;;;;;;5107397;28;20031;-52
2023/12/16 07:45:31;;;;;;;5.25;3.83;;;;;;;;;;5107385;28;20028;-50
2023/12/16 07:47:57;;;;;;;5.55;4.93;;;;;;;;;;5107387;28;20028;-55
2023/12/16 07:50:24;;;;;;;5.57;4.45;;;;;;;;;;5107112;28;20016;-53
2023/12/16 07:52:51;;;;;;;5.93;4.40;;;;;;;;;;5107168;28;20032;-49
2023/12/16 07:55:17;;;;;;;4.75;4.20;;;;;;;;;;5106918;28;20055;-54
2023/12/16 07:57:44;;;;;;;6.50;4.68;;;;;;;;;;5106930;28;20020;-55
2023/12/16 08:00:11;;;;;;;5.25;4.30;;;;;;;;;;5107099;28;20307;-55
2023/12/16 08:02:37;;;;;;;5.50;4.35;;;;;;;;;;5106695;28;20027;-53
2023/12/16 08:05:04;;;;;;;7.15;4.75;;;;;;;;;;5106911;28;20079;-52
2023/12/16 08:07:31;;;;;;;7.93;5.05;;;;;;;;;;5106876;28;20046;-48
2023/12/16 08:09:58;;;;;;;5.10;4.60;;;;;;;;;;5106475;28;20035;-51
2023/12/16 08:12:24;;;;;;;6.15;4.88;;;;;;;;;;5106611;28;20210;-58
2023/12/16 08:14:51;;;;;;;5.88;4.95;;;;;;;;;;5106685;28;20024;-51
2023/12/16 08:17:18;;;;;;;6.80;5.07;;;;;;;;;;5106528;28;20306;-53
2023/12/16 08:19:44;;;;;;;5.22;4.63;;;;;;;;;;5106703;28;20042;-54
2023/12/16 08:22:11;;;;;;;7.07;4.90;;;;;;;;;;5106368;28;20097;-55
2023/12/16 08:24:38;;;;;;;8.68;5.25;;;;;;;;;;5106365;28;20253;-53
2023/12/16 08:27:06;;;;;;;6.47;5.15;;;;;;;;;;5105884;28;20027;-53
2023/12/16 08:29:32;;;;;;;10.07;5.85;;;;;;;;;;5106265;28;20403;-53
2023/12/16 08:31:59;;;;;;;19.13;8.02;;;;;;;;;;5106105;28;20079;-56
2023/12/16 08:34:26;;;;;;;23.00;9.73;;;;;;;;;;5106379;28;20016;-52
2023/12/16 08:36:54;;;;;;;18.17;9.88;;;;;;;;;;5106603;28;20024;-52
2023/12/16 08:39:21;;;;;;;24.38;9.52;;;;;;;;;;5105928;28;20031;-52
2023/12/16 08:41:48;;;;;;;14.85;8.80;;;;;;;;;;5106500;28;20094;-53
2023/12/16 08:44:14;;;;;;;11.85;8.63;;;;;;;;;;5106012;28;20450;-57
2023/12/16 08:46:42;;;;;;;14.65;9.07;;;;;;;;;;5106303;28;20070;-52
2023/12/16 08:49:08;;;;;;;14.77;8.85;;;;;;;;;;5106027;28;20090;-54
2023/12/16 08:51:35;;;;;;;16.25;9.88;;;;;;;;;;5105961;28;20185;-53
2023/12/16 08:54:02;;;;;;;13.93;9.75;;;;;;;;;;5105584;28;20023;-57
2023/12/16 08:56:28;;;;;;;15.13;9.80;;;;;;;;;;5097973;28;20355;-56
2023/12/16 08:58:55;;;;;;;14.20;10.32;;;;;;;;;;5101554;28;20032;-54
2023/12/16 09:01:22;;;;;;;14.30;9.80;;;;;;;;;;5106015;28;20054;-54
2023/12/16 09:03:48;;;;;;;12.23;8.82;;;;;;;;;;5105608;28;20028;-53
2023/12/16 09:06:16;;;;;;;17.63;9.13;;;;;;;;;;5106100;28;20054;-54
2023/12/16 09:08:42;;;;;;;13.35;9.30;;;;;;;;;;5105371;28;20035;-53
2023/12/16 09:11:10;;;;;;;12.23;8.70;;;;;;;;;;5105975;28;20089;-55
2023/12/16 09:13:36;;;;;;;12.35;9.10;;;;;;;;;;5105455;28;20028;-52
2023/12/16 09:16:04;;;;;;;11.00;8.43;;;;;;;;;;5105665;28;20091;-53
2023/12/16 09:18:30;;;;;;;11.45;8.70;;;;;;;;;;5105570;28;20055;-56
2023/12/16 09:20:57;;;;;;;9.02;7.30;;;;;;;;;;5105766;28;20208;-52
2023/12/16 09:23:24;;;;;;;11.73;7.45;;;;;;;;;;5105200;28;20024;-55
2023/12/16 09:25:52;;;;;;;8.25;6.95;;;;;;;;;;5105412;28;20392;-52
2023/12/16 09:28:19;;;;;;;8.00;6.75;;;;;;;;;;5105050;28;20346;-54
2023/12/16 09:30:46;;;;;;;7.75;6.97;;;;;;;;;;5105424;28;20083;-56
2023/12/16 09:33:12;;;;;;;8.15;6.88;;;;;;;;;;5105057;28;20020;-54
2023/12/16 09:35:39;;;;;;;8.23;7.18;;;;;;;;;;5105260;28;20039;-54
2023/12/16 09:38:06;;;;;;;9.98;6.90;;;;;;;;;;5104974;28;20212;-53
2023/12/16 09:40:33;;;;;;;8.25;7.28;;;;;;;;;;5104926;28;20019;-59
2023/12/16 09:43:05;;;;;;;10.52;7.60;;;;;;;;;;5105119;28;20073;-58
2023/12/16 09:45:33;;;;;;;11.20;7.80;;;;;;;;;;5105110;28;20035;-55
2023/12/16 09:48:00;;;;;;;10.20;8.07;;;;;;;;;;5105179;28;20052;-55
2023/12/16 09:50:27;;;;;;;12.80;7.85;;;;;;;;;;5104787;28;20024;-54
2023/12/16 09:52:54;;;;;;;9.07;8.18;;;;;;;;;;5104791;28;20028;-55
2023/12/16 09:55:21;;;;;;;8.73;7.90;;;;;;;;;;5104969;28;20020;-54
2023/12/16 09:57:48;;;;;;;9.52;8.52;;;;;;;;;;5105679;28;20364;-57
2023/12/16 10:00:17;;;;;;;9.25;8.45;;;;;;;;;;5104296;28;20282;-51
2023/12/16 10:02:47;;;;;;;10.45;8.20;;;;;;;;;;5104512;28;20028;-55
2023/12/16 10:05:14;;;;;;;11.35;8.52;;;;;;;;;;5104415;28;20077;-59
2023/12/16 10:07:41;;;;;;;12.35;8.50;;;;;;;;;;5104252;28;20030;-48
2023/12/16 10:10:08;;;;;;;10.18;8.60;;;;;;;;;;5104349;28;20326;-51
2023/12/16 10:12:35;;;;;;;11.70;8.73;;;;;;;;;;5102681;28;20091;-50
2023/12/16 10:15:02;;;;;;;10.48;8.48;;;;;;;;;;5103367;28;20051;-55
2023/12/16 10:17:28;;;;;;;9.73;8.73;;;;;;;;;;5104258;28;20023;-53
2023/12/16 10:19:55;;;;;;;9.55;8.60;;;;;;;;;;5104394;28;20028;-56
2023/12/16 10:22:22;;;;;;;9.18;8.35;;;;;;;;;;5103660;28;20228;-55
2023/12/16 10:24:48;;;;;;;10.45;8.65;;;;;;;;;;5102629;28;20024;-55
2023/12/16 10:27:19;;;;;;;10.00;8.70;;;;;;;;;;5102691;28;20043;-50
2023/12/16 10:29:46;;;;;;;10.27;9.23;;;;;;;;;;5102403;28;20040;-55
2023/12/16 10:32:13;;;;;;;11.75;9.10;;;;;;;;;;5100754;28;20035;-56
2023/12/16 10:34:40;;;;;;;11.68;9.13;;;;;;;;;;5091964;28;20021;-59
2023/12/16 10:37:07;;;;;;;9.90;8.90;;;;;;;;;;5082884;28;20016;-58
2023/12/16 10:39:35;;;;;;;9.35;8.45;;;;;;;;;;5083843;28;20025;-56
2023/12/16 10:42:02;;;;;;;10.98;8.13;;;;;;;;;;5084309;28;20040;-54
2023/12/16 10:44:29;;;;;;;10.13;9.13;;;;;;;;;;5083762;28;20028;-54
2023/12/16 10:46:56;;;;;;;11.02;9.00;;;;;;;;;;5084207;28;20078;-55
2023/12/16 10:49:30;;;;;;;12.68;8.52;;;;;;;;;;5083645;28;20028;-54
2023/12/16 10:52:03;;;;;;;10.35;8.73;;;;;;;;;;5087920;28;20025;-62
2023/12/16 10:54:33;;;;;;;9.68;8.38;;;;;;;;;;5087944;28;20079;-51
2023/12/16 10:57:07;;;;;;;12.05;8.32;;;;;;;;;;5095044;28;20020;-55
2023/12/16 10:59:40;;;;;;;11.65;7.78;;;;;;;;;;5108126;28;20305;-52
2023/12/16 11:02:13;;;;;;;14.75;8.05;;;;;;;;;;5108175;28;20065;-58
2023/12/16 11:04:40;;;;;;;20.35;8.68;;;;;;;;;;5108220;28;20305;-63
2023/12/16 11:07:08;;;;;;;12.15;7.75;;;;;;;;;;5108139;28;20099;-57
2023/12/16 11:09:34;;;;;;;9.50;7.85;;;;;;;;;;5100819;28;20074;-48
2023/12/16 11:12:02;;;;;;;10.70;7.75;;;;;;;;;;5107220;28;20312;-54
2023/12/16 11:14:31;;;;;;;8.75;7.03;;;;;;;;;;5107952;28;20055;-53
2023/12/16 11:17:09;;;;;;;8.15;6.75;;;;;;;;;;5108332;28;20008;-52
2023/12/16 11:19:59;;;;;;;11.35;6.75;;;;;;;;;;5107740;28;20070;-48
2023/12/16 11:22:26;;;;;;;8.88;6.88;;;;;;;;;;5094618;28;20040;-48
2023/12/16 11:24:54;;;;;;;10.23;6.80;;;;;;;;;;5107899;28;20236;-52
2023/12/16 11:27:21;;;;;;;10.32;7.65;;;;;;;;;;5106935;28;20035;-53
2023/12/16 11:29:47;;;;;;;10.00;6.88;;;;;;;;;;5107049;28;20048;-50
2023/12/16 11:32:14;;;;;;;9.07;7.35;;;;;;;;;;5107662;28;20035;-53
2023/12/16 11:34:45;;;;;;;12.13;7.35;;;;;;;;;;5107493;28;20024;-52
2023/12/16 11:37:12;;;;;;;8.63;6.75;;;;;;;;;;5107272;28;20030;-45
2023/12/16 11:39:45;;;;;;;10.13;6.93;;;;;;;;;;5092040;28;20036;-51
2023/12/16 11:42:15;;;;;;;8.88;7.03;;;;;;;;;;5086961;28;20046;-52
2023/12/16 11:44:48;;;;;;;7.38;6.78;;;;;;;;;;5085946;28;20032;-51
2023/12/16 11:47:24;;;;;;;7.70;6.13;;;;;;;;;;5087043;28;20094;-44
2023/12/16 11:49:53;;;;;;;6.78;5.88;;;;;;;;;;5087534;28;20086;-45
2023/12/16 11:52:20;;;;;;;6.70;6.10;;;;;;;;;;5087905;28;20039;-45
2023/12/16 11:54:54;;;;;;;7.22;6.10;;;;;;;;;;5087645;28;20079;-55
2023/12/16 11:57:25;;;;;;;7.47;5.85;;;;;;;;;;5087536;28;20072;-47
2023/12/16 11:59:52;;;;;;;6.07;5.50;;;;;;;;;;5087753;28;20070;-48
2023/12/16 12:02:19;;;;;;;7.65;5.63;;;;;;;;;;5083975;28;20024;-49
2023/12/16 12:04:46;;;;;;;6.95;5.45;;;;;;;;;;5084775;28;20031;-47
2023/12/16 12:07:13;;;;;;;6.07;5.47;;;;;;;;;;5084798;28;20066;-48
2023/12/16 12:09:43;;;;;;;6.07;5.45;;;;;;;;;;5084775;28;20033;-45
2023/12/16 12:12:11;;;;;;;6.03;5.38;;;;;;;;;;5085622;28;20063;-52
2023/12/16 12:14:46;;;;;;;7.35;5.22;;;;;;;;;;5087286;28;20205;-51
2023/12/16 12:17:16;;;;;;;5.72;4.97;;;;;;;;;;5086601;28;20221;-52
2023/12/16 12:19:43;;;;;;;5.10;4.70;;;;;;;;;;5087290;28;20021;-45
2023/12/16 12:22:10;;;;;;;7.20;4.65;;;;;;;;;;5087247;28;20028;-49
2023/12/16 12:24:37;;;;;;;5.28;4.78;;;;;;;;;;5085471;28;20024;-53
2023/12/16 12:27:03;;;;;;;5.55;4.90;;;;;;;;;;5087422;28;20047;-54
2023/12/16 12:29:49;;;;;;;6.38;5.20;;;;;;;;;;5086926;28;20048;-47
2023/12/16 12:32:16;;;;;;;6.10;5.50;;;;;;;;;;5087132;28;20021;-47
2023/12/16 12:34:43;;;;;;;7.20;5.20;;;;;;;;;;5087036;28;20020;-49
2023/12/16 12:37:09;;;;;;;6.07;4.90;;;;;;;;;;5086777;28;20088;-54
2023/12/16 12:39:36;;;;;;;5.70;5.00;;;;;;;;;;5086824;28;20070;-46
2023/12/16 12:42:04;;;;;;;5.10;4.60;;;;;;;;;;5087358;28;20032;-46
2023/12/16 12:44:31;;;;;;;5.30;4.80;;;;;;;;;;5086673;28;20070;-45
2023/12/16 12:46:58;;;;;;;6.15;4.75;;;;;;;;;;5086925;28;20029;-49
2023/12/16 12:49:35;;;;;;;4.82;4.43;;;;;;;;;;5086432;28;20032;-45
2023/12/16 12:52:02;;;;;;;6.70;4.63;;;;;;;;;;5087081;28;20142;-51
2023/12/16 12:54:42;;;;;;;5.90;4.43;;;;;;;;;;5085993;28;20021;-52
2023/12/16 12:57:09;;;;;;;5.38;4.88;;;;;;;;;;5086710;28;20033;-52
2023/12/16 12:59:35;;;;;;;5.43;4.65;;;;;;;;;;5086506;28;20035;-50
2023/12/16 13:02:02;;;;;;;5.35;4.70;;;;;;;;;;5086640;28;20016;-47
2023/12/16 13:04:29;;;;;;;4.82;4.43;;;;;;;;;;5086266;28;20036;-48
2023/12/16 13:06:55;;;;;;;4.78;4.10;;;;;;;;;;5086435;28;20021;-44
2023/12/16 13:09:22;;;;;;;5.90;4.57;;;;;;;;;;5085959;28;20288;-53
2023/12/16 13:11:50;;;;;;;6.13;4.78;;;;;;;;;;5086349;28;20028;-52
2023/12/16 13:14:17;;;;;;;5.88;5.30;;;;;;;;;;5085527;28;20036;-46
2023/12/16 13:16:43;;;;;;;5.68;5.03;;;;;;;;;;5086600;28;20013;-47
2023/12/16 13:19:11;;;;;;;6.57;5.30;;;;;;;;;;5086082;28;20099;-48
2023/12/16 13:21:40;;;;;;;7.43;5.10;;;;;;;;;;5086402;28;20048;-54
2023/12/16 13:24:07;;;;;;;6.60;5.28;;;;;;;;;;5085941;28;20020;-49
2023/12/16 13:26:34;;;;;;;6.15;5.15;;;;;;;;;;5086187;28;20028;-53
2023/12/16 13:29:00;;;;;;;5.47;4.97;;;;;;;;;;5085171;28;20319;-44
2023/12/16 13:31:28;;;;;;;6.38;5.32;;;;;;;;;;5085992;28;20027;-46
2023/12/16 13:33:55;;;;;;;6.03;5.13;;;;;;;;;;5085618;28;20025;-54
2023/12/16 13:36:22;;;;;;;6.32;5.05;;;;;;;;;;5085543;28;20032;-52
2023/12/16 13:38:49;;;;;;;6.30;5.70;;;;;;;;;;5085500;28;20031;-49
2023/12/16 13:41:16;;;;;;;6.70;5.97;;;;;;;;;;5085933;28;20054;-52
2023/12/16 13:43:44;;;;;;;6.30;5.80;;;;;;;;;;5085500;28;20024;-50
2023/12/16 13:46:11;;;;;;;6.45;5.85;;;;;;;;;;5085780;28;20192;-46
2023/12/16 13:48:37;;;;;;;7.20;6.47;;;;;;;;;;5085155;28;20044;-52
2023/12/16 13:51:04;;;;;;;7.70;6.32;;;;;;;;;;5085358;28;20028;-56
2023/12/16 13:53:31;;;;;;;6.40;5.80;;;;;;;;;;5085443;28;20092;-48
2023/12/16 13:55:58;;;;;;;6.10;5.50;;;;;;;;;;5085687;28;20017;-52
2023/12/16 13:58:24;;;;;;;6.43;5.80;;;;;;;;;;5085205;28;20028;-51
2023/12/16 14:00:51;;;;;;;5.85;5.35;;;;;;;;;;5085236;28;20016;-52
2023/12/16 14:03:17;;;;;;;10.38;5.93;;;;;;;;;;5084663;28;20266;-45
2023/12/16 14:05:44;;;;;;;6.20;5.60;;;;;;;;;;5085246;28;20312;-45
2023/12/16 14:08:17;;;;;;;6.95;5.57;;;;;;;;;;5084937;28;20040;-50
2023/12/16 14:10:45;;;;;;;7.45;5.65;;;;;;;;;;5085219;28;20201;-54
2023/12/16 14:13:13;;;;;;;6.95;5.50;;;;;;;;;;5084469;28;20024;-47
2023/12/16 14:15:39;;;;;;;6.10;5.50;;;;;;;;;;5084962;28;20095;-45
2023/12/16 14:18:14;;;;;;;6.93;5.10;;;;;;;;;;5084851;28;20025;-51
2023/12/16 14:20:41;;;;;;;7.45;5.70;;;;;;;;;;5085096;28;20032;-46
2023/12/16 14:23:08;;;;;;;6.57;5.97;;;;;;;;;;5084855;28;20032;-48
2023/12/16 14:25:35;;;;;;;5.95;5.45;;;;;;;;;;5084263;28;20307;-47
2023/12/16 14:28:01;;;;;;;6.22;5.72;;;;;;;;;;5084239;28;20024;-47
2023/12/16 14:30:28;;;;;;;5.70;5.18;;;;;;;;;;5084630;28;20032;-48
2023/12/16 14:32:55;;;;;;;7.63;5.28;;;;;;;;;;5084787;28;20025;-46
2023/12/16 14:35:31;;;;;;;9.18;5.75;;;;;;;;;;5084721;28;20016;-55
2023/12/16 14:37:57;;;;;;;6.65;5.97;;;;;;;;;;5084739;28;20028;-51
2023/12/16 14:40:24;;;;;;;6.38;5.63;;;;;;;;;;5084428;28;20013;-49